EYVIEVRA

Guest
Details From EYVI - Vilnius Intl
To EVRA - Riga Intl
Flight Number -
Tags Decoded
Created
Modified
Stats Distance 146 nm / 270 km
Max Altitude 0 ft / 0 m
Waypoints 2
Social Downloads 6
Likes 0
Share VATSIM

Download

Looking for another format? Having issues loading an existing format? Contact us
Advertisement - Login to hide

Notes

Decoded

Route

EYVI EVRA

ID Type Via Altitude Latitude Longitude Leg Dist Tot Dist Heading (true) Name
O EYVI APT - 0 ft / 0 m 54.62373˚ 25.27855˚ - 0 nm - -
O EVRA APT - 0 ft / 0 m 56.93507˚ 23.97308˚ 145 nm 145 nm 343° / 342° -

Altitude Profile

Advertisement - Login to hide

EYVI

Details ICAO EYVI (VNO)
Name VILNIUS INTL
Region Lithuania
Timezone Europe/Vilnius (UTC+2.0)
Stats Elevation 646 ft / 197 m (AMSL)
Location 54.634166° 25.285796°
Runways 1
Magnetic Variation 7.470° E

METAR

EYVI 121920Z 21015KT 9999 BKN041 06/03 Q1000 R19/2///95 NOSIG

Decode

TAF

TAF EYVI 121707Z 1218/1318 20012G22KT 7000 BKN020 TEMPO 1218/1223 22022G32KT TEMPO 1223/1306 SCT005

Decode

Departure Runways

ID Width Length Bearing (true) Bearing (mag) Surface Threshold Offset Overrun Length
02 164 ft / 50 m 8,210 ft / 2,502 m 21.89° 14.42° Asphalt 0 ft / 0 m 151 ft / 46 m
20 164 ft / 50 m 8,210 ft / 2,502 m 201.91° 194.44° Asphalt 0 ft / 0 m 0 ft / 0 m

EVRA

Details ICAO EVRA (RIX)
Name Riga Intl
Region Latvia
Timezone Europe/Riga (UTC+2.0)
Stats Elevation 34 ft / 10 m (AMSL)
Location 56.923662° 23.971193°
Runways 1
Magnetic Variation 7.655° E

METAR

EVRA 121920Z 22015KT 9999 -SHRA BKN016 BKN024CB OVC042 06/05 Q0992 R18/290195 NOSIG

Decode

TAF

TAF AMD EVRA 121637Z 1216/1315 19012KT 9999 OVC010 TEMPO 1216/1224 22017G30KT BKN010 FM130000 25012KT 8000 -RA OVC007 TEMPO 1300/1306 23012G30KT 3000 SHRA BKN002 SCT010CB BECMG 1306/1308 19010KT BKN015 TEMPO 1309/1315 20015G25KT BKN010

Decode

Destination Runways

ID Width Length Bearing (true) Bearing (mag) Surface Threshold Offset Overrun Length
18 148 ft / 45 m 8,358 ft / 2,548 m 185.15° 177.49° Asphalt 0 ft / 0 m 170 ft / 52 m
36 148 ft / 45 m 8,358 ft / 2,548 m 5.14° 357.48° Asphalt 0 ft / 0 m 170 ft / 52 m

Approach Navaids

Runway Type Ident Frequency Range Bearing (true) Bearing (mag) Slope Elevation
18 Localiser IAO 110.30 MHz 18 nm / 33 km 185.14° 177.48° - 34 ft / 10 m (AMSL)
18 Glidescope IAO 110.30 MHz 10 nm / 19 km 185.15° 177.49° 3.00° 34 ft / 10 m (AMSL)
18 DME IAO 110.30 MHz 18 nm / 33 km - - - 0 ft / 0 m (AMSL)
36 Localiser IRP 110.30 MHz 18 nm / 33 km 5.14° 357.49° - 34 ft / 10 m (AMSL)
36 Glidescope IRP 110.30 MHz 10 nm / 19 km 5.14° 357.49° 3.00° 34 ft / 10 m (AMSL)
36 DME IRP 110.30 MHz 18 nm / 33 km - - - 0 ft / 0 m (AMSL)

Popular Alternatives